Time;durP1;ratioP1;P1;durP2;ratioP2;P2;SDS_P1;SDS_P2;PMS_P1;PMS_P2;Temp;Humidity;BMP_temperature;BMP_pressure;BME280_temperature;BME280_humidity;BME280_pressure;Samples;Min_cycle;Max_cycle;Signal;HPM_P1;HPM_P2
2021/12/07 00:01:00;;;;;;;21.73;15.43;;;;;;;10.80;100.00;100409.78;1658472;86;20990;-64
2021/12/07 00:03:27;;;;;;;22.85;15.30;;;;;;;10.86;100.00;100406.93;1662590;85;21046;-61
2021/12/07 00:05:55;;;;;;;21.40;15.00;;;;;;;11.07;100.00;100403.59;1669173;85;21514;-59
2021/12/07 00:08:25;;;;;;;20.20;14.00;;;;;;;10.94;100.00;100408.13;1667605;84;21843;-61
2021/12/07 00:10:52;;;;;;;22.77;14.25;;;;;;;8.26;100.00;100422.16;1641310;86;21625;-66
2021/12/07 00:13:19;;;;;;;21.52;14.75;;;;;;;7.93;100.00;100415.34;1648868;85;21011;-61
2021/12/07 00:15:47;;;;;;;23.98;16.60;;;;;;;7.79;100.00;100416.30;1633742;87;21029;-60
2021/12/07 00:18:14;;;;;;;21.48;14.85;;;;;;;7.79;100.00;100412.89;1632963;86;21085;-59
2021/12/07 00:20:42;;;;;;;23.67;16.40;;;;;;;7.68;100.00;100410.13;1633171;87;21165;-59
2021/12/07 00:23:10;;;;;;;24.92;16.45;;;;;;;8.11;100.00;100408.22;1632758;87;21068;-67
2021/12/07 00:25:37;;;;;;;21.90;14.55;;;;;;;7.92;100.00;100411.94;1649880;85;21593;-59
2021/12/07 00:28:05;;;;;;;24.70;16.15;;;;;;;7.87;100.00;100404.30;1633246;87;21495;-62
2021/12/07 00:30:34;;;;;;;26.70;17.15;;;;;;;8.07;100.00;100398.30;1633152;86;21822;-59
2021/12/07 00:33:51;;;;;;;27.30;18.05;;;;;;;7.99;100.00;100392.16;1634653;87;21113;-58
2021/12/07 00:35:36;;;;;;;30.82;18.05;;;;;;;8.07;100.00;100384.02;1620465;86;21071;-59
2021/12/07 00:38:11;;;;;;;26.68;16.23;;;;;;;8.37;100.00;100377.32;1633919;87;20977;-60
2021/12/07 00:40:38;;;;;;;29.32;17.35;;;;;;;8.49;100.00;100379.45;1669232;84;20982;-61
2021/12/07 00:43:05;;;;;;;25.40;16.37;;;;;;;9.04;100.00;100376.98;1668992;84;21043;-66
2021/12/07 00:45:34;;;;;;;26.85;16.70;;;;;;;8.88;100.00;100376.56;1692260;84;21131;-64
2021/12/07 00:48:01;;;;;;;29.50;17.85;;;;;;;8.84;100.00;100373.98;1691942;84;21028;-60
2021/12/07 00:50:31;;;;;;;28.45;17.20;;;;;;;8.96;100.00;100373.44;1668321;84;21020;-60
2021/12/07 00:53:02;;;;;;;26.73;18.27;;;;;;;8.93;100.00;100364.66;1668596;85;21027;-61
2021/12/07 00:55:30;;;;;;;25.72;17.37;;;;;;;8.99;100.00;100362.70;1668148;85;21670;-59
2021/12/07 00:57:58;;;;;;;32.03;20.55;;;;;;;9.20;100.00;100359.48;1668308;84;21593;-61
2021/12/07 01:00:27;;;;;;;28.07;18.48;;;;;;;9.11;100.00;100361.83;1661747;86;20897;-59
2021/12/07 01:02:54;;;;;;;28.32;18.60;;;;;;;9.18;100.00;100361.47;1661895;85;21028;-60
2021/12/07 01:05:28;;;;;;;25.90;17.57;;;;;;;9.36;100.00;100355.20;1667902;85;20913;-60
2021/12/07 01:08:10;;;;;;;25.45;16.27;;;;;;;9.30;100.00;100352.78;1666164;85;21576;-61
2021/12/07 01:26:55;;;;;;;25.52;15.98;;;;;;;8.98;100.00;100335.09;1658763;86;21725;-62
2021/12/07 01:29:25;;;;;;;26.62;17.40;;;;;;;9.41;100.00;100337.27;1659475;86;21052;-60
2021/12/07 01:32:11;;;;;;;25.57;16.90;;;;;;;8.94;100.00;100337.71;1658562;85;20962;-64
2021/12/07 01:45:16;;;;;;;28.97;18.43;;;;;;;9.44;100.00;100320.81;1616409;86;21106;-61
2021/12/07 01:47:33;;;;;;;29.77;18.32;;;;;;;10.38;100.00;100314.78;1655805;86;21763;-66
2021/12/07 01:52:53;;;;;;;27.13;17.83;;;;;;;9.96;100.00;100312.72;1695371;83;21464;-60
2021/12/07 02:00:35;;;;;;;23.33;15.40;;;;;;;9.91;100.00;100300.24;1634795;87;21563;-60
2021/12/07 02:03:03;;;;;;;28.07;17.60;;;;;;;9.80;100.00;100294.66;1635121;85;21145;-66
2021/12/07 02:05:31;;;;;;;23.15;14.45;;;;;;;9.92;100.00;100287.53;1635810;86;21006;-59
2021/12/07 02:07:58;;;;;;;23.38;15.60;;;;;;;9.99;100.00;100292.34;1653504;83;21105;-60
2021/12/07 02:10:29;;;;;;;25.88;15.95;;;;;;;9.84;100.00;100285.50;1638454;86;21142;-59
2021/12/07 02:13:04;;;;;;;24.03;16.07;;;;;;;9.68;100.00;100283.37;1642298;86;20959;-61
2021/12/07 02:15:29;;;;;;;23.67;15.57;;;;;;;10.04;100.00;100279.28;1651285;85;21315;-59
2021/12/07 02:17:55;;;;;;;28.70;18.87;;;;;;;10.04;100.00;100284.48;1651817;86;21462;-65
2021/12/07 02:20:24;;;;;;;28.87;18.55;;;;;;;9.70;100.00;100281.41;1655753;85;21163;-61
2021/12/07 02:22:53;;;;;;;27.00;17.07;;;;;;;10.14;100.00;100281.14;1656801;85;21042;-60
2021/12/07 02:25:20;;;;;;;23.97;15.63;;;;;;;10.60;100.00;100284.36;1656641;86;21310;-60
2021/12/07 02:27:48;;;;;;;24.25;14.20;;;;;;;9.88;100.00;100286.27;1652031;85;21368;-59
2021/12/07 02:30:18;;;;;;;19.90;12.75;;;;;;;9.87;100.00;100281.25;1630329;87;20928;-64
2021/12/07 02:32:50;;;;;;;22.07;14.05;;;;;;;9.88;100.00;100275.05;1629478;87;21026;-59
2021/12/07 02:35:24;;;;;;;24.47;14.53;;;;;;;10.27;100.00;100276.66;1606040;85;21027;-61
2021/12/07 02:37:48;;;;;;;22.13;13.90;;;;;;;10.40;100.00;100273.70;1656932;84;21145;-59
2021/12/07 02:40:15;;;;;;;23.77;14.73;;;;;;;10.53;100.00;100270.94;1661164;86;21586;-61
2021/12/07 02:42:44;;;;;;;23.03;13.77;;;;;;;10.14;100.00;100276.73;1649604;84;21062;-58
2021/12/07 02:45:12;;;;;;;21.43;13.43;;;;;;;10.24;100.00;100272.06;1665243;84;21297;-60
2021/12/07 02:47:40;;;;;;;22.42;13.68;;;;;;;10.43;100.00;100270.73;1635229;85;21706;-64
2021/12/07 02:50:09;;;;;;;21.00;13.20;;;;;;;10.71;100.00;100264.84;1652482;84;21026;-61
2021/12/07 02:52:37;;;;;;;21.83;15.00;;;;;;;10.54;100.00;100259.55;1609458;87;21793;-65
2021/12/07 02:55:05;;;;;;;24.03;15.97;;;;;;;10.74;100.00;100250.64;1649356;84;21191;-59
2021/12/07 02:57:34;;;;;;;26.87;16.57;;;;;;;10.32;100.00;100259.47;1661634;84;21361;-59
2021/12/07 03:00:13;;;;;;;25.20;15.60;;;;;;;9.81;100.00;100265.03;1663189;84;21155;-65
2021/12/07 03:02:39;;;;;;;21.57;14.97;;;;;;;10.09;100.00;100271.77;1647760;85;21361;-61
2021/12/07 03:05:13;;;;;;;24.40;15.10;;;;;;;10.51;100.00;100263.81;1670342;84;22650;-60
2021/12/07 03:26:41;;;;;;;23.53;15.07;;;;;;;10.61;100.00;100276.08;1589670;89;21057;-65
2021/12/07 03:29:09;;;;;;;26.03;16.00;;;;;;;10.12;100.00;100280.03;1648858;85;22586;-60
2021/12/07 03:31:36;;;;;;;22.27;13.57;;;;;;;10.09;100.00;100282.18;1663428;84;22020;-59
2021/12/07 03:34:04;;;;;;;24.97;14.73;;;;;;;10.38;100.00;100282.68;1648535;86;21245;-61
2021/12/07 03:36:33;;;;;;;21.73;14.57;;;;;;;10.26;100.00;100275.02;1647405;84;21642;-60
2021/12/07 03:39:01;;;;;;;23.23;14.03;;;;;;;9.92;100.00;100275.81;1655216;84;21642;-59
2021/12/07 03:41:29;;;;;;;24.27;15.00;;;;;;;9.95;100.00;100280.67;1657901;84;21183;-60
2021/12/07 03:43:57;;;;;;;21.42;14.80;;;;;;;10.19;100.00;100269.20;1661924;84;21795;-59
2021/12/07 03:46:25;;;;;;;21.23;13.63;;;;;;;10.33;100.00;100264.19;1671163;84;21086;-65
2021/12/07 03:48:53;;;;;;;24.90;15.10;;;;;;;10.03;100.00;100268.56;1628068;86;21388;-60
2021/12/07 03:51:20;;;;;;;21.03;13.53;;;;;;;9.87;100.00;100265.13;1663870;83;21285;-60
2021/12/07 03:53:49;;;;;;;21.73;13.27;;;;;;;9.71;100.00;100253.59;1663338;82;21627;-61
2021/12/07 03:56:17;;;;;;;20.87;12.57;;;;;;;9.98;100.00;100256.08;1679948;83;22273;-64
2021/12/07 03:58:44;;;;;;;21.33;12.93;;;;;;;10.21;100.00;100263.80;1686918;83;21339;-64
2021/12/07 04:01:12;;;;;;;21.07;12.97;;;;;;;10.21;100.00;100267.71;1683481;81;21688;-60
2021/12/07 04:03:41;;;;;;;21.60;14.23;;;;;;;10.32;100.00;100255.56;1712905;83;21325;-59
2021/12/07 04:06:09;;;;;;;19.87;11.93;;;;;;;10.01;100.00;100257.03;1713271;83;21359;-59
2021/12/07 04:08:39;;;;;;;17.20;11.30;;;;;;;10.42;100.00;100253.50;1709481;83;21498;-62
2021/12/07 04:11:06;;;;;;;18.70;12.10;;;;;;;10.50;100.00;100249.98;1657885;85;21196;-60
2021/12/07 04:13:34;;;;;;;20.23;12.10;;;;;;;10.28;100.00;100244.39;1668234;85;21241;-60
2021/12/07 04:16:02;;;;;;;22.33;13.03;;;;;;;10.21;100.00;100249.48;1668187;85;21254;-60
2021/12/07 04:18:29;;;;;;;21.07;12.33;;;;;;;10.41;100.00;100250.55;1668116;85;21312;-63
2021/12/07 04:20:57;;;;;;;21.73;12.90;;;;;;;9.90;100.00;100260.08;1668240;85;21176;-59
2021/12/07 04:23:24;;;;;;;21.75;14.20;;;;;;;10.36;100.00;100256.81;1661450;85;21739;-59
2021/12/07 04:25:52;;;;;;;21.97;13.90;;;;;;;10.60;100.00;100254.89;1667065;85;21136;-60
2021/12/07 04:28:19;;;;;;;21.53;13.30;;;;;;;9.94;100.00;100259.53;1668504;85;21376;-61
2021/12/07 04:30:47;;;;;;;19.53;13.27;;;;;;;10.48;100.00;100248.03;1659545;85;21466;-63
2021/12/07 04:33:15;;;;;;;21.57;13.08;;;;;;;10.68;100.00;100250.87;1666698;85;21260;-58
2021/12/07 04:35:47;;;;;;;19.10;11.80;;;;;;;10.33;100.00;100257.17;1667132;85;21011;-59
2021/12/07 04:38:14;;;;;;;21.00;13.45;;;;;;;10.15;100.00;100248.88;1667925;85;21749;-60
2021/12/07 04:40:41;;;;;;;21.83;12.70;;;;;;;9.86;100.00;100254.91;1667084;85;21098;-60
2021/12/07 04:43:08;;;;;;;18.57;12.00;;;;;;;10.03;100.00;100260.25;1666645;85;21922;-61
2021/12/07 04:45:54;;;;;;;19.87;12.77;;;;;;;10.01;100.00;100251.02;1667721;85;21404;-60
2021/12/07 04:58:54;;;;;;;23.37;13.53;;;;;;;9.97;100.00;100255.28;1665425;85;21815;-60
2021/12/07 05:01:22;;;;;;;21.45;13.68;;;;;;;9.90;100.00;100243.95;1659540;85;21194;-60
2021/12/07 05:03:50;;;;;;;21.60;12.27;;;;;;;9.55;100.00;100245.94;1662153;86;21067;-62
2021/12/07 05:06:22;;;;;;;20.00;12.83;;;;;;;9.65;100.00;100247.77;1696993;84;21775;-61
2021/12/07 05:08:56;;;;;;;21.30;12.93;;;;;;;9.63;100.00;100244.06;1699535;84;21147;-63
2021/12/07 05:11:44;;;;;;;19.60;12.50;;;;;;;9.60;100.00;100244.91;1698518;84;21332;-63
2021/12/07 05:19:15;;;;;;;18.43;11.97;;;;;;;9.99;100.00;100242.06;1697517;84;21365;-63
2021/12/07 05:24:21;;;;;;;21.53;13.60;;;;;;;10.25;100.00;100236.44;1694393;82;21162;-62
2021/12/07 05:37:57;;;;;;;20.97;13.00;;;;;;;10.64;100.00;100243.10;1698351;82;21268;-65
2021/12/07 05:40:30;;;;;;;20.57;13.32;;;;;;;10.41;100.00;100246.64;1670355;85;21240;-66
2021/12/07 05:42:57;;;;;;;21.90;13.80;;;;;;;10.37;100.00;100242.80;1675201;84;22298;-61
2021/12/07 05:45:27;;;;;;;20.62;13.20;;;;;;;10.38;100.00;100243.59;1699557;84;21211;-64
2021/12/07 05:47:54;;;;;;;28.40;16.07;;;;;;;10.41;100.00;100242.73;1678367;84;20958;-62
2021/12/07 05:50:25;;;;;;;23.23;15.00;;;;;;;10.59;100.00;100244.16;1698575;84;21737;-65
2021/12/07 05:52:51;;;;;;;23.53;15.17;;;;;;;10.41;100.00;100245.34;1698974;84;21576;-60
2021/12/07 05:55:19;;;;;;;24.40;14.83;;;;;;;10.23;100.00;100234.48;1698231;82;21401;-61
2021/12/07 05:57:47;;;;;;;22.70;14.03;;;;;;;10.28;100.00;100224.35;1698674;84;21933;-61
2021/12/07 06:00:25;;;;;;;22.60;14.90;;;;;;;10.29;100.00;100223.36;1682362;84;21225;-61
2021/12/07 06:02:57;;;;;;;25.60;15.30;;;;;;;10.41;100.00;100232.81;1717042;83;21782;-62
2021/12/07 06:05:24;;;;;;;26.20;14.70;;;;;;;10.57;100.00;100232.63;1719994;83;21360;-61
2021/12/07 06:07:52;;;;;;;24.50;14.63;;;;;;;10.46;100.00;100233.90;1715407;83;21205;-62
2021/12/07 06:10:20;;;;;;;26.10;15.63;;;;;;;10.77;100.00;100222.41;1697563;83;21270;-66
2021/12/07 06:12:47;;;;;;;26.97;15.63;;;;;;;11.01;100.00;100216.51;1718565;83;21096;-62
2021/12/07 06:15:18;;;;;;;24.20;14.50;;;;;;;10.88;100.00;100218.00;1719037;83;21147;-63
2021/12/07 06:17:43;;;;;;;19.63;12.47;;;;;;;11.04;100.00;100223.47;1720324;82;21202;-62
2021/12/07 06:20:11;;;;;;;23.70;13.90;;;;;;;10.93;100.00;100223.46;1719632;83;21379;-62
2021/12/07 06:22:39;;;;;;;24.43;15.33;;;;;;;11.12;100.00;100225.14;1718749;83;21114;-62
2021/12/07 06:25:07;;;;;;;25.57;16.00;;;;;;;11.26;100.00;100222.16;1719080;83;21313;-62
2021/12/07 06:27:34;;;;;;;21.10;14.10;;;;;;;11.31;100.00;100228.41;1719276;83;21146;-63
2021/12/07 06:30:01;;;;;;;25.73;15.93;;;;;;;11.26;100.00;100229.98;1719425;83;21397;-63
2021/12/07 06:32:28;;;;;;;20.13;13.77;;;;;;;11.17;100.00;100224.91;1717955;82;21401;-66
2021/12/07 06:34:55;;;;;;;26.00;15.27;;;;;;;10.17;100.00;100232.59;1719858;83;21702;-62
2021/12/07 06:37:23;;;;;;;25.30;14.93;;;;;;;10.25;100.00;100232.52;1719795;83;21261;-64
2021/12/07 06:39:50;;;;;;;20.87;13.63;;;;;;;10.69;100.00;100227.73;1718836;82;22486;-62
2021/12/07 06:42:17;;;;;;;21.43;14.00;;;;;;;10.90;100.00;100225.12;1719077;83;21853;-66
2021/12/07 06:44:45;;;;;;;24.07;14.30;;;;;;;10.93;100.00;100214.83;1704963;82;21454;-63
2021/12/07 06:47:12;;;;;;;25.63;15.70;;;;;;;10.89;100.00;100210.48;1719488;82;21348;-61
2021/12/07 06:49:39;;;;;;;23.90;14.90;;;;;;;10.90;100.00;100206.07;1719311;82;21317;-63
2021/12/07 06:52:07;;;;;;;24.93;14.07;;;;;;;10.85;100.00;100200.62;1718604;83;21414;-61
2021/12/07 06:54:36;;;;;;;21.40;13.43;;;;;;;10.86;100.00;100208.24;1718226;83;21244;-62
2021/12/07 06:57:04;;;;;;;25.60;15.93;;;;;;;10.93;100.00;100215.63;1719698;82;21261;-61
2021/12/07 06:59:31;;;;;;;21.80;13.30;;;;;;;10.83;100.00;100214.32;1719617;83;21270;-61
2021/12/07 07:01:59;;;;;;;20.90;13.23;;;;;;;10.37;100.00;100209.41;1711941;82;21429;-63
2021/12/07 07:04:27;;;;;;;19.73;12.70;;;;;;;10.42;100.00;100212.30;1716983;83;21372;-63
2021/12/07 07:06:54;;;;;;;23.17;13.40;;;;;;;10.57;100.00;100219.59;1717372;82;21236;-61
2021/12/07 07:09:23;;;;;;;21.27;12.57;;;;;;;10.85;100.00;100224.09;1718705;83;21328;-61
2021/12/07 07:11:50;;;;;;;22.07;14.33;;;;;;;10.88;100.00;100216.70;1720111;83;21309;-61
2021/12/07 07:14:19;;;;;;;25.47;13.90;;;;;;;10.99;100.00;100211.48;1719851;83;21217;-68
2021/12/07 07:16:46;;;;;;;20.07;13.27;;;;;;;11.05;100.00;100220.36;1717988;83;21151;-68
2021/12/07 07:19:15;;;;;;;20.17;13.47;;;;;;;11.17;100.00;100220.99;1718637;83;21271;-63
2021/12/07 07:21:43;;;;;;;21.10;14.23;;;;;;;11.15;100.00;100221.66;1718769;83;21196;-62
2021/12/07 07:24:10;;;;;;;22.57;14.93;;;;;;;11.54;100.00;100211.22;1713504;82;21258;-62
2021/12/07 07:26:37;;;;;;;23.33;14.00;;;;;;;11.55;100.00;100203.69;1718820;83;21582;-63
2021/12/07 07:29:05;;;;;;;20.63;13.37;;;;;;;11.76;100.00;100201.53;1717804;83;21343;-67
2021/12/07 07:31:32;;;;;;;22.23;15.07;;;;;;;11.69;100.00;100208.52;1719153;82;21323;-63
2021/12/07 07:33:59;;;;;;;23.87;14.67;;;;;;;11.67;100.00;100211.83;1718723;83;21272;-63
2021/12/07 07:36:26;;;;;;;23.83;14.17;;;;;;;11.84;100.00;100216.27;1717965;82;21403;-64
2021/12/07 07:38:54;;;;;;;24.97;13.77;;;;;;;12.03;100.00;100215.56;1718967;83;21364;-63
2021/12/07 07:41:21;;;;;;;28.33;16.07;;;;;;;12.21;100.00;100224.20;1718455;82;21259;-63
2021/12/07 07:43:49;;;;;;;23.07;14.27;;;;;;;12.25;100.00;100225.93;1718036;83;21092;-61
2021/12/07 07:46:19;;;;;;;23.57;13.63;;;;;;;11.87;100.00;100229.75;1719109;82;21310;-69
2021/12/07 07:48:46;;;;;;;19.97;12.70;;;;;;;11.82;100.00;100226.89;1715824;82;21798;-63
2021/12/07 07:51:13;;;;;;;26.67;14.87;;;;;;;11.86;100.00;100219.00;1718605;83;21000;-63
2021/12/07 07:53:41;;;;;;;24.13;15.43;;;;;;;11.85;100.00;100216.06;1718267;83;21896;-63
2021/12/07 07:56:08;;;;;;;23.23;14.60;;;;;;;11.88;100.00;100211.77;1719254;82;21244;-62
2021/12/07 07:58:35;;;;;;;22.23;13.97;;;;;;;11.81;100.00;100207.48;1698929;82;21270;-70
2021/12/07 08:01:03;;;;;;;26.40;16.27;;;;;;;12.11;100.00;100202.34;1712304;83;21357;-65
2021/12/07 08:03:30;;;;;;;31.90;19.67;;;;;;;12.25;100.00;100200.59;1718681;82;21322;-64
2021/12/07 08:05:58;;;;;;;31.03;19.53;;;;;;;12.21;100.00;100191.54;1718541;83;21845;-63
2021/12/07 08:08:25;;;;;;;30.83;20.30;;;;;;;12.08;100.00;100186.24;1708595;83;21313;-69
2021/12/07 08:10:52;;;;;;;29.40;19.40;;;;;;;12.13;100.00;100190.41;1706832;83;21409;-63
2021/12/07 08:13:21;;;;;;;30.37;16.80;;;;;;;12.41;100.00;100184.56;1715107;82;21264;-69
2021/12/07 08:15:50;;;;;;;26.20;16.93;;;;;;;12.45;100.00;100178.95;1711206;83;21276;-64
2021/12/07 08:18:18;;;;;;;28.77;16.00;;;;;;;12.34;100.00;100175.89;1719086;83;21141;-64
2021/12/07 08:20:46;;;;;;;25.50;14.90;;;;;;;12.35;100.00;100174.91;1716613;83;21236;-67
2021/12/07 08:23:14;;;;;;;23.33;15.27;;;;;;;12.63;100.00;100172.16;1715092;82;21307;-61
2021/12/07 08:25:46;;;;;;;26.80;17.27;;;;;;;12.78;100.00;100174.59;1716270;83;21305;-61
2021/12/07 08:28:15;;;;;;;28.53;15.70;;;;;;;12.98;100.00;100171.98;1714437;81;21294;-62
2021/12/07 08:30:42;;;;;;;32.63;17.57;;;;;;;13.04;100.00;100159.93;1717390;82;21175;-66
2021/12/07 08:33:09;;;;;;;29.17;17.10;;;;;;;13.01;100.00;100156.41;1717450;83;21175;-61
2021/12/07 08:35:37;;;;;;;26.67;17.20;;;;;;;13.18;100.00;100155.48;1719035;82;21216;-60
2021/12/07 08:38:04;;;;;;;27.83;16.70;;;;;;;13.57;100.00;100158.09;1719659;82;21189;-61
2021/12/07 08:40:31;;;;;;;25.53;16.77;;;;;;;13.56;100.00;100155.66;1719218;82;21690;-69
2021/12/07 08:42:59;;;;;;;26.13;16.50;;;;;;;13.18;100.00;100152.36;1719544;83;21644;-60
2021/12/07 08:45:27;;;;;;;26.00;16.27;;;;;;;12.63;100.00;100150.44;1668437;84;37778;-71
2021/12/07 08:47:54;;;;;;;26.67;16.07;;;;;;;12.43;100.00;100142.55;1718486;83;22030;-65
2021/12/07 08:50:23;;;;;;;24.50;14.10;;;;;;;12.43;100.00;100143.86;1719371;82;21361;-64
2021/12/07 08:52:51;;;;;;;24.50;15.70;;;;;;;12.93;100.00;100130.45;1719198;83;21264;-59
2021/12/07 09:00:33;;;;;;;28.67;16.30;;;;;;;13.49;100.00;100127.40;1693785;83;21837;-64
2021/12/07 09:03:00;;;;;;;22.57;13.83;;;;;;;13.47;100.00;100118.93;1708918;83;21909;-60
2021/12/07 09:05:28;;;;;;;25.10;15.93;;;;;;;13.62;100.00;100107.71;1699010;84;21296;-64
2021/12/07 09:07:55;;;;;;;25.63;15.87;;;;;;;13.62;100.00;100107.71;1699465;84;21439;-59
2021/12/07 09:10:22;;;;;;;24.07;16.00;;;;;;;14.04;100.00;100097.66;1688915;82;21533;-71
2021/12/07 09:12:50;;;;;;;25.47;15.33;;;;;;;14.13;100.00;100097.73;1679259;84;21439;-70
2021/12/07 09:15:18;;;;;;;25.93;15.97;;;;;;;14.44;100.00;100087.76;1697174;84;21805;-66
2021/12/07 09:17:45;;;;;;;22.17;15.63;;;;;;;14.42;100.00;100084.53;1663798;85;21604;-61
2021/12/07 09:20:15;;;;;;;24.90;15.23;;;;;;;14.42;100.00;100084.53;1642460;85;21432;-60
2021/12/07 09:22:44;;;;;;;27.53;18.20;;;;;;;14.29;100.00;100078.88;1632924;87;21753;-65
2021/12/07 09:25:11;;;;;;;25.37;16.33;;;;;;;13.81;100.00;100091.11;1660701;86;22277;-63
2021/12/07 09:27:38;;;;;;;21.83;14.33;;;;;;;14.00;100.00;100078.13;1685159;84;21981;-60
2021/12/07 09:30:09;;;;;;;19.17;13.23;;;;;;;13.83;100.00;100076.00;1684561;84;22378;-66
2021/12/07 09:32:36;;;;;;;17.20;12.30;;;;;;;14.04;100.00;100079.31;1697128;82;22276;-67
2021/12/07 09:35:06;;;;;;;22.80;12.93;;;;;;;14.24;100.00;100073.95;1697514;82;22474;-68
2021/12/07 09:37:34;;;;;;;16.57;11.83;;;;;;;14.45;100.00;100070.20;1698195;82;22159;-63
2021/12/07 09:40:06;;;;;;;17.70;12.43;;;;;;;15.14;100.00;100067.91;1697836;82;21806;-61
2021/12/07 09:42:34;;;;;;;17.42;12.05;;;;;;;15.14;100.00;100067.91;1677787;84;21703;-71
2021/12/07 09:45:01;;;;;;;17.63;11.87;;;;;;;15.20;100.00;100057.87;1695182;84;21497;-68
2021/12/07 09:47:29;;;;;;;17.63;11.40;;;;;;;14.91;100.00;100055.42;1697795;84;21814;-62
2021/12/07 09:49:56;;;;;;;19.80;12.67;;;;;;;14.46;100.00;100061.31;1697874;84;21005;-64
2021/12/07 09:52:24;;;;;;;17.57;12.20;;;;;;;14.63;100.00;100044.06;1698806;83;21025;-60
2021/12/07 09:54:53;;;;;;;19.87;12.77;;;;;;;14.63;100.00;100044.06;1671861;84;21087;-63
2021/12/07 09:57:21;;;;;;;18.90;13.13;;;;;;;14.72;100.00;100042.77;1660567;86;21507;-64
2021/12/07 09:59:49;;;;;;;20.33;13.10;;;;;;;14.52;100.00;100043.45;1698359;84;21116;-62
2021/12/07 10:02:16;;;;;;;18.30;12.90;;;;;;;14.78;100.00;100040.61;1681267;84;21070;-63
2021/12/07 10:04:43;;;;;;;21.57;12.33;;;;;;;14.78;100.00;100040.61;1674555;84;21005;-63
2021/12/07 10:07:12;;;;;;;18.63;12.50;;;;;;;14.58;100.00;100034.70;1705147;83;21860;-62
2021/12/07 10:09:42;;;;;;;19.23;11.30;;;;;;;14.88;100.00;100037.47;1705793;82;23150;-62
2021/12/07 10:12:10;;;;;;;19.10;11.30;;;;;;;14.97;100.00;100040.64;1706289;82;21491;-63
2021/12/07 10:14:40;;;;;;;19.33;11.90;;;;;;;15.04;100.00;100042.69;1679905;84;21032;-61
2021/12/07 10:17:08;;;;;;;17.37;10.93;;;;;;;15.03;100.00;100034.50;1706339;82;21625;-62
2021/12/07 10:19:37;;;;;;;16.53;11.77;;;;;;;15.16;100.00;100033.07;1699148;84;21424;-64
2021/12/07 10:22:08;;;;;;;16.63;10.70;;;;;;;15.24;100.00;100034.09;1706083;82;21125;-64
2021/12/07 10:24:47;;;;;;;16.80;11.23;;;;;;;15.50;100.00;100029.05;1705389;82;22215;-62
2021/12/07 10:27:37;;;;;;;16.43;11.37;;;;;;;15.36;100.00;100030.73;1705635;82;21453;-61
2021/12/07 10:30:12;;;;;;;17.40;10.67;;;;;;;15.16;100.00;100038.84;1706165;82;21023;-63
2021/12/07 10:32:40;;;;;;;17.10;10.80;;;;;;;15.30;100.00;100028.45;1695404;82;22178;-62
2021/12/07 10:35:29;;;;;;;19.17;11.10;;;;;;;15.15;100.00;100024.88;1699825;84;22723;-60
2021/12/07 10:38:13;;;;;;;17.63;10.90;;;;;;;15.17;100.00;100018.91;1697385;84;21083;-73
2021/12/07 10:41:02;;;;;;;20.63;12.90;;;;;;;15.28;100.00;100022.12;1680452;84;21205;-62
2021/12/07 10:43:53;;;;;;;19.67;13.43;;;;;;;15.36;100.00;100018.40;1693064;82;21857;-65
2021/12/07 10:46:44;;;;;;;;;;;;;;;15.30;100.00;100009.59;1690301;82;20993;-62
2021/12/07 10:49:37;;;;;;;17.40;11.30;;;;;;;15.47;100.00;100001.90;1698543;82;21171;-65
2021/12/07 10:52:17;;;;;;;13.90;9.47;;;;;;;15.66;100.00;100001.39;1693866;82;21040;-73
2021/12/07 10:54:58;;;;;;;14.63;10.17;;;;;;;15.80;100.00;100002.02;1704857;82;21143;-64
2021/12/07 10:57:30;;;;;;;14.98;9.48;;;;;;;16.02;100.00;100000.98;1702934;84;21604;-63
2021/12/07 11:00:24;;;;;;;14.70;9.50;;;;;;;15.77;100.00;99994.06;1705419;84;21079;-64
2021/12/07 11:03:01;;;;;;;17.87;10.13;;;;;;;15.89;100.00;99991.47;1688689;82;21168;-61
2021/12/07 11:05:38;;;;;;;13.00;8.90;;;;;;;16.00;100.00;99999.91;1687311;84;21078;-62
2021/12/07 11:08:06;;;;;;;13.93;8.73;;;;;;;16.01;100.00;99998.87;1688599;82;21064;-62
2021/12/07 11:10:38;;;;;;;14.93;10.17;;;;;;;15.98;100.00;99993.25;1692501;84;21970;-64
2021/12/07 11:13:16;;;;;;;16.25;9.00;;;;;;;15.86;100.00;100002.42;1691087;84;21593;-75
2021/12/07 11:15:55;;;;;;;16.70;9.70;;;;;;;15.34;100.00;99994.16;1623220;87;21251;-77
2021/12/07 11:18:25;;;;;;;15.73;9.40;;;;;;;15.13;100.00;99985.45;1655729;86;21571;-61
2021/12/07 11:20:58;;;;;;;17.57;10.07;;;;;;;15.06;100.00;99992.87;1650065;86;21067;-64
2021/12/07 11:23:31;;;;;;;15.50;10.40;;;;;;;14.95;100.00;99987.55;1648165;86;21064;-75
2021/12/07 11:31:50;;;;;;;16.70;10.70;;;;;;;14.63;100.00;99984.24;1641649;86;22553;-63
2021/12/07 11:34:30;;;;;;;16.17;9.43;;;;;;;14.63;100.00;99977.17;1637829;86;21093;-64
2021/12/07 11:37:06;;;;;;;11.37;7.90;;;;;;;14.48;100.00;99974.05;1633302;86;21053;-62
2021/12/07 11:39:48;;;;;;;19.70;11.83;;;;;;;14.48;100.00;99974.05;1647011;86;21117;-68
2021/12/07 11:42:28;;;;;;;15.33;10.03;;;;;;;14.55;100.00;99970.89;1634022;86;21138;-67
2021/12/07 11:45:03;;;;;;;13.20;9.13;;;;;;;14.53;100.00;99976.34;1650931;86;21168;-64
2021/12/07 11:47:39;;;;;;;16.87;10.33;;;;;;;14.69;100.00;99973.66;1649570;86;21839;-62
2021/12/07 11:50:23;;;;;;;14.40;9.37;;;;;;;14.64;100.00;99970.90;1650905;86;21050;-66
2021/12/07 11:52:55;;;;;;;13.80;9.47;;;;;;;14.47;100.00;99963.25;1651117;86;21797;-65
2021/12/07 11:55:22;;;;;;;17.12;10.28;;;;;;;14.69;100.00;99961.86;1651086;86;22168;-62
2021/12/07 11:57:50;;;;;;;17.73;10.37;;;;;;;14.47;100.00;99958.00;1645960;86;21175;-61
2021/12/07 12:00:22;;;;;;;16.87;9.40;;;;;;;13.93;100.00;99958.13;1630895;86;21776;-63
2021/12/07 12:02:49;;;;;;;14.60;9.53;;;;;;;13.99;100.00;99967.27;1651426;86;21808;-72
2021/12/07 12:05:17;;;;;;;18.73;10.90;;;;;;;14.07;100.00;99967.00;1651053;86;21649;-64
2021/12/07 12:07:46;;;;;;;13.77;9.57;;;;;;;14.02;100.00;99963.43;1649207;86;21845;-67
2021/12/07 12:10:17;;;;;;;16.40;10.40;;;;;;;14.05;100.00;99966.91;1641436;87;22331;-63
2021/12/07 12:13:17;;;;;;;13.58;8.85;;;;;;;14.22;100.00;99959.34;1650675;86;21781;-73
2021/12/07 12:16:20;;;;;;;17.20;11.00;;;;;;;14.46;100.00;99962.45;1650254;86;21521;-64
2021/12/07 12:19:21;;;;;;;16.57;9.80;;;;;;;14.44;100.00;99958.45;1662074;85;22063;-72
2021/12/07 12:22:02;;;;;;;17.73;10.17;;;;;;;14.36;100.00;99955.59;1669982;85;21750;-71
2021/12/07 12:24:52;;;;;;;17.50;10.70;;;;;;;14.41;100.00;99958.88;1670087;85;22055;-64
2021/12/07 12:27:32;;;;;;;16.10;9.53;;;;;;;14.27;100.00;99954.25;1659920;85;21705;-62
2021/12/07 12:29:59;;;;;;;18.90;11.23;;;;;;;14.25;100.00;99945.81;1667190;85;21716;-65
2021/12/07 12:32:40;;;;;;;20.80;15.10;;;;;;;13.90;100.00;99943.62;1640344;85;22046;-63
2021/12/07 12:35:10;;;;;;;24.20;16.83;;;;;;;14.00;100.00;99944.48;1649780;85;21679;-65
2021/12/07 12:37:37;;;;;;;23.73;14.43;;;;;;;13.81;100.00;99940.98;1629760;87;22116;-64
2021/12/07 12:40:21;;;;;;;18.60;13.13;;;;;;;13.81;100.00;99940.98;1650150;86;22751;-66
2021/12/07 12:42:51;;;;;;;22.00;11.93;;;;;;;13.82;100.00;99946.00;1638755;86;21722;-73
2021/12/07 12:45:29;;;;;;;16.83;11.83;;;;;;;13.84;100.00;99938.73;1641133;86;22154;-76
2021/12/07 12:48:03;;;;;;;16.43;10.77;;;;;;;13.83;100.00;99941.08;1669840;85;21601;-62
2021/12/07 12:50:47;;;;;;;20.40;12.30;;;;;;;13.74;100.00;99937.09;1659078;85;22305;-69
2021/12/07 12:53:21;;;;;;;19.63;12.00;;;;;;;13.64;100.00;99938.08;1655669;85;21715;-60